Monday, October 23, 2017, 12:06 PM CDT
Back to Local

KGCK, Garden City Regional Airport

Location: Garden City, KS, United States Lat: 37.917
Local Time: 12:06 PM CDT (17:06 GMT) Lon: -100.717
Time Zone: US/Central Elev: 2890 ft

Show me the last for .
Show Decoded

2017-10-23 10:54 METAR KGCK 231554Z 36028G36KT 10SM CLR 14/02 A3028 RMK AO2 PK WND 36038/1543
                 SLP246 T01440017 =
2017-10-23 09:54 METAR KGCK 231454Z 01024G33KT 10SM CLR 14/02 A3025 RMK AO2 PK WND 01033/1446
                 RAB00E28 SLP234 P0000 60000 T01390022 51047 =
2017-10-23 08:54 METAR KGCK 231354Z 01016KT 10SM CLR 12/02 A3020 RMK AO2 SLP216 T01220017 =
2017-10-23 07:54 METAR KGCK 231254Z 01019KT 10SM CLR 13/01 A3016 RMK AO2 RAB17E26 SLP201 P0000
                 T01330011 =
2017-10-23 06:54 METAR KGCK 231154Z 34011KT 10SM CLR 09/M01 A3010 RMK AO2 SLP182 T00891006 10089
                 20050 53021 =
2017-10-23 05:54 METAR KGCK 231054Z AUTO 30008KT 10SM CLR 06/M01 A3006 RMK AO2 SLP170 T00611006 =
2017-10-23 04:54 METAR KGCK 230954Z AUTO 30007KT 10SM CLR 06/00 A3003 RMK AO2 SLP157 T00560000 =
2017-10-23 03:54 METAR KGCK 230854Z AUTO 27007KT 10SM CLR 06/M01 A3003 RMK AO2 SLP156 T00561006
                 58004 =
2017-10-23 02:54 METAR KGCK 230754Z AUTO 28006KT 10SM CLR 07/M01 A3004 RMK AO2 SLP158 T00671006 =
2017-10-23 01:54 METAR KGCK 230654Z AUTO 27004KT 10SM CLR 06/M01 A3004 RMK AO2 SLP163 T00611011 =
2017-10-23 00:54 METAR KGCK 230554Z AUTO 24008KT 10SM CLR 09/M01 A3005 RMK AO2 SLP160 T00891006
                 10150 20083 402221033 58004 =
2017-10-22 23:54 METAR KGCK 230454Z AUTO 22008KT 10SM CLR 09/M01 A3005 RMK AO2 SLP166 T00891011 =
2017-10-22 22:54 METAR KGCK 230354Z AUTO 22009KT 10SM CLR 10/M02 A3006 RMK AO2 SLP172 T01001017 =
2017-10-22 21:54 METAR KGCK 230254Z AUTO 20007KT 10SM CLR 12/M03 A3006 RMK AO2 SLP176 T01171028
                 58004 =
2017-10-22 20:54 METAR KGCK 230154Z 19008KT 10SM CLR 12/M03 A3006 RMK AO2 SLP184 T01171033 =
2017-10-22 19:54 METAR KGCK 230054Z 16005KT 10SM CLR 13/M04 A3007 RMK AO2 SLP187 T01331039 =
2017-10-22 18:54 METAR KGCK 222354Z 19006KT 10SM CLR 16/M05 A3007 RMK AO2 SLP187 T01561050 10222
                 20156 56011 =
2017-10-22 17:54 METAR KGCK 222254Z 23006KT 10SM CLR 18/M03 A3007 RMK AO2 SLP183 T01781033 =
2017-10-22 16:54 METAR KGCK 222154Z 23012KT 10SM CLR 22/M06 A3008 RMK AO2 SLP180 T02221061 =
2017-10-22 15:54 METAR KGCK 222054Z 22009KT 10SM CLR 22/M06 A3011 RMK AO2 SLP188 T02171061 56033
                 =
2017-10-22 14:54 METAR KGCK 221954Z 26011KT 10SM CLR 21/M08 A3013 RMK AO2 SLP193 T02061078 =
2017-10-22 13:54 METAR KGCK 221854Z 24011KT 10SM CLR 19/M08 A3017 RMK AO2 SLP210 T01941078 =
2017-10-22 12:54 METAR KGCK 221754Z 23012G17KT 10SM CLR 18/M08 A3021 RMK AO2 SLP225 T01831083
                 10183 21033 58013 =

Support USWX by starting your Amazon purchase here.